sensor_id;sensor_type;location;lat;lon;timestamp;P1;durP1;ratioP1;P2;durP2;ratioP2
10719;SDS011;5411;58.386;15.560;2023-12-04T00:00:22;3.13;;;2.53;;
10719;SDS011;5411;58.386;15.560;2023-12-04T00:02:54;3.80;;;2.47;;
10719;SDS011;5411;58.386;15.560;2023-12-04T00:05:23;4.50;;;3.17;;
10719;SDS011;5411;58.386;15.560;2023-12-04T00:07:52;2.53;;;2.23;;
10719;SDS011;5411;58.386;15.560;2023-12-04T00:10:21;2.83;;;2.57;;
10719;SDS011;5411;58.386;15.560;2023-12-04T00:12:49;4.03;;;2.93;;
10719;SDS011;5411;58.386;15.560;2023-12-04T00:15:18;3.23;;;2.60;;
10719;SDS011;5411;58.386;15.560;2023-12-04T00:17:47;4.03;;;2.83;;
10719;SDS011;5411;58.386;15.560;2023-12-04T00:20:17;4.17;;;2.47;;
10719;SDS011;5411;58.386;15.560;2023-12-04T00:22:46;3.90;;;2.67;;
10719;SDS011;5411;58.386;15.560;2023-12-04T00:25:15;3.57;;;2.80;;
10719;SDS011;5411;58.386;15.560;2023-12-04T00:27:43;3.20;;;2.60;;
10719;SDS011;5411;58.386;15.560;2023-12-04T00:30:12;3.27;;;2.77;;
10719;SDS011;5411;58.386;15.560;2023-12-04T00:32:41;4.50;;;3.10;;
10719;SDS011;5411;58.386;15.560;2023-12-04T00:35:09;3.57;;;2.90;;
10719;SDS011;5411;58.386;15.560;2023-12-04T00:37:39;4.07;;;3.23;;
10719;SDS011;5411;58.386;15.560;2023-12-04T00:40:08;5.43;;;3.00;;
10719;SDS011;5411;58.386;15.560;2023-12-04T00:42:37;3.70;;;2.97;;
10719;SDS011;5411;58.386;15.560;2023-12-04T00:45:06;3.57;;;2.87;;
10719;SDS011;5411;58.386;15.560;2023-12-04T00:47:35;3.27;;;2.97;;
10719;SDS011;5411;58.386;15.560;2023-12-04T00:50:04;3.40;;;2.60;;
10719;SDS011;5411;58.386;15.560;2023-12-04T00:52:33;4.00;;;2.70;;
10719;SDS011;5411;58.386;15.560;2023-12-04T00:55:03;3.00;;;2.53;;
10719;SDS011;5411;58.386;15.560;2023-12-04T00:57:32;3.83;;;3.37;;
10719;SDS011;5411;58.386;15.560;2023-12-04T01:00:01;4.83;;;2.93;;
10719;SDS011;5411;58.386;15.560;2023-12-04T01:02:30;4.03;;;3.10;;
10719;SDS011;5411;58.386;15.560;2023-12-04T01:05:00;3.93;;;2.60;;
10719;SDS011;5411;58.386;15.560;2023-12-04T01:07:28;3.87;;;2.87;;
10719;SDS011;5411;58.386;15.560;2023-12-04T01:09:57;3.57;;;3.00;;
10719;SDS011;5411;58.386;15.560;2023-12-04T01:12:27;3.70;;;2.63;;
10719;SDS011;5411;58.386;15.560;2023-12-04T01:14:55;3.57;;;2.80;;
10719;SDS011;5411;58.386;15.560;2023-12-04T01:17:24;4.30;;;2.60;;
10719;SDS011;5411;58.386;15.560;2023-12-04T01:19:53;4.07;;;2.87;;
10719;SDS011;5411;58.386;15.560;2023-12-04T01:22:22;3.60;;;2.80;;
10719;SDS011;5411;58.386;15.560;2023-12-04T01:24:55;2.97;;;2.67;;
10719;SDS011;5411;58.386;15.560;2023-12-04T01:27:24;3.80;;;2.97;;
10719;SDS011;5411;58.386;15.560;2023-12-04T01:29:54;3.50;;;2.80;;
10719;SDS011;5411;58.386;15.560;2023-12-04T01:32:22;2.93;;;2.30;;
10719;SDS011;5411;58.386;15.560;2023-12-04T01:34:51;3.63;;;2.67;;
10719;SDS011;5411;58.386;15.560;2023-12-04T01:37:19;4.00;;;2.97;;
10719;SDS011;5411;58.386;15.560;2023-12-04T01:39:48;2.83;;;2.47;;
10719;SDS011;5411;58.386;15.560;2023-12-04T01:42:16;3.00;;;2.63;;
10719;SDS011;5411;58.386;15.560;2023-12-04T01:44:45;3.67;;;2.80;;
10719;SDS011;5411;58.386;15.560;2023-12-04T01:47:20;3.70;;;2.73;;
10719;SDS011;5411;58.386;15.560;2023-12-04T01:49:49;4.10;;;2.70;;
10719;SDS011;5411;58.386;15.560;2023-12-04T01:52:20;4.07;;;3.10;;
10719;SDS011;5411;58.386;15.560;2023-12-04T01:54:49;3.67;;;2.87;;
10719;SDS011;5411;58.386;15.560;2023-12-04T01:57:18;3.40;;;2.63;;
10719;SDS011;5411;58.386;15.560;2023-12-04T01:59:47;4.03;;;2.70;;
10719;SDS011;5411;58.386;15.560;2023-12-04T02:02:15;3.10;;;2.80;;
10719;SDS011;5411;58.386;15.560;2023-12-04T02:04:49;3.97;;;2.90;;
10719;SDS011;5411;58.386;15.560;2023-12-04T02:07:18;3.77;;;2.90;;
10719;SDS011;5411;58.386;15.560;2023-12-04T02:09:46;3.23;;;2.80;;
10719;SDS011;5411;58.386;15.560;2023-12-04T02:12:15;3.93;;;3.20;;
10719;SDS011;5411;58.386;15.560;2023-12-04T02:14:47;5.67;;;2.97;;
10719;SDS011;5411;58.386;15.560;2023-12-04T02:17:16;6.67;;;2.90;;
10719;SDS011;5411;58.386;15.560;2023-12-04T02:19:45;4.27;;;3.13;;
10719;SDS011;5411;58.386;15.560;2023-12-04T02:22:15;4.37;;;2.83;;
10719;SDS011;5411;58.386;15.560;2023-12-04T02:24:46;4.43;;;3.13;;
10719;SDS011;5411;58.386;15.560;2023-12-04T02:27:16;3.43;;;2.60;;
10719;SDS011;5411;58.386;15.560;2023-12-04T02:29:51;3.53;;;2.83;;
10719;SDS011;5411;58.386;15.560;2023-12-04T02:32:24;3.43;;;2.63;;
10719;SDS011;5411;58.386;15.560;2023-12-04T02:34:57;3.47;;;2.80;;
10719;SDS011;5411;58.386;15.560;2023-12-04T02:37:30;4.83;;;3.17;;
10719;SDS011;5411;58.386;15.560;2023-12-04T02:40:05;6.20;;;3.00;;
10719;SDS011;5411;58.386;15.560;2023-12-04T02:42:34;5.10;;;2.60;;
10719;SDS011;5411;58.386;15.560;2023-12-04T02:45:03;3.67;;;2.60;;
10719;SDS011;5411;58.386;15.560;2023-12-04T02:47:33;4.37;;;2.80;;
10719;SDS011;5411;58.386;15.560;2023-12-04T02:50:02;4.27;;;3.20;;
10719;SDS011;5411;58.386;15.560;2023-12-04T02:52:31;4.23;;;3.00;;
10719;SDS011;5411;58.386;15.560;2023-12-04T02:55:00;4.20;;;2.83;;
10719;SDS011;5411;58.386;15.560;2023-12-04T02:57:30;4.10;;;2.60;;
10719;SDS011;5411;58.386;15.560;2023-12-04T03:00:02;3.80;;;3.00;;
10719;SDS011;5411;58.386;15.560;2023-12-04T03:02:31;5.43;;;3.00;;
10719;SDS011;5411;58.386;15.560;2023-12-04T03:05:00;4.13;;;3.17;;
10719;SDS011;5411;58.386;15.560;2023-12-04T03:07:29;3.77;;;2.80;;
10719;SDS011;5411;58.386;15.560;2023-12-04T03:09:57;4.27;;;2.97;;
10719;SDS011;5411;58.386;15.560;2023-12-04T03:12:26;3.80;;;2.87;;
10719;SDS011;5411;58.386;15.560;2023-12-04T03:14:56;5.33;;;2.77;;
10719;SDS011;5411;58.386;15.560;2023-12-04T03:17:24;5.00;;;2.80;;
10719;SDS011;5411;58.386;15.560;2023-12-04T03:19:53;4.00;;;3.00;;
10719;SDS011;5411;58.386;15.560;2023-12-04T03:22:21;4.13;;;3.50;;
10719;SDS011;5411;58.386;15.560;2023-12-04T03:24:52;4.03;;;2.60;;
10719;SDS011;5411;58.386;15.560;2023-12-04T03:27:21;3.73;;;2.67;;
10719;SDS011;5411;58.386;15.560;2023-12-04T03:29:53;4.50;;;2.53;;
10719;SDS011;5411;58.386;15.560;2023-12-04T03:32:23;5.63;;;3.30;;
10719;SDS011;5411;58.386;15.560;2023-12-04T03:34:51;3.60;;;2.60;;
10719;SDS011;5411;58.386;15.560;2023-12-04T03:37:20;4.20;;;2.73;;
10719;SDS011;5411;58.386;15.560;2023-12-04T03:39:48;4.33;;;2.87;;
10719;SDS011;5411;58.386;15.560;2023-12-04T03:42:18;4.00;;;2.80;;
10719;SDS011;5411;58.386;15.560;2023-12-04T03:44:47;4.83;;;2.87;;
10719;SDS011;5411;58.386;15.560;2023-12-04T03:47:16;4.50;;;2.73;;
10719;SDS011;5411;58.386;15.560;2023-12-04T03:49:46;5.33;;;2.63;;
10719;SDS011;5411;58.386;15.560;2023-12-04T03:52:15;4.87;;;2.80;;
10719;SDS011;5411;58.386;15.560;2023-12-04T03:54:44;4.20;;;2.97;;
10719;SDS011;5411;58.386;15.560;2023-12-04T03:57:12;3.90;;;2.77;;
10719;SDS011;5411;58.386;15.560;2023-12-04T03:59:41;6.03;;;3.03;;
10719;SDS011;5411;58.386;15.560;2023-12-04T04:02:11;4.77;;;2.90;;
10719;SDS011;5411;58.386;15.560;2023-12-04T04:04:39;5.13;;;3.07;;
10719;SDS011;5411;58.386;15.560;2023-12-04T04:07:15;5.33;;;2.90;;
10719;SDS011;5411;58.386;15.560;2023-12-04T04:09:44;3.00;;;2.10;;
10719;SDS011;5411;58.386;15.560;2023-12-04T04:12:13;3.57;;;2.70;;
10719;SDS011;5411;58.386;15.560;2023-12-04T04:14:41;4.13;;;2.70;;
10719;SDS011;5411;58.386;15.560;2023-12-04T04:17:10;3.53;;;2.70;;
10719;SDS011;5411;58.386;15.560;2023-12-04T04:19:39;3.53;;;2.60;;
10719;SDS011;5411;58.386;15.560;2023-12-04T04:22:13;4.43;;;2.77;;
10719;SDS011;5411;58.386;15.560;2023-12-04T04:24:41;4.43;;;2.67;;
10719;SDS011;5411;58.386;15.560;2023-12-04T04:27:13;4.50;;;2.70;;
10719;SDS011;5411;58.386;15.560;2023-12-04T04:29:44;4.23;;;2.90;;
10719;SDS011;5411;58.386;15.560;2023-12-04T04:32:12;3.20;;;2.83;;
10719;SDS011;5411;58.386;15.560;2023-12-04T04:34:41;3.13;;;2.30;;
10719;SDS011;5411;58.386;15.560;2023-12-04T04:37:09;4.03;;;2.93;;
10719;SDS011;5411;58.386;15.560;2023-12-04T04:39:40;3.60;;;2.50;;
10719;SDS011;5411;58.386;15.560;2023-12-04T04:42:09;5.70;;;3.10;;
10719;SDS011;5411;58.386;15.560;2023-12-04T04:44:37;6.37;;;3.07;;
10719;SDS011;5411;58.386;15.560;2023-12-04T04:47:06;5.03;;;2.80;;
10719;SDS011;5411;58.386;15.560;2023-12-04T04:49:34;3.93;;;2.80;;
10719;SDS011;5411;58.386;15.560;2023-12-04T04:52:04;4.40;;;2.63;;
10719;SDS011;5411;58.386;15.560;2023-12-04T04:54:33;3.27;;;2.60;;
10719;SDS011;5411;58.386;15.560;2023-12-04T04:57:03;4.87;;;3.20;;
10719;SDS011;5411;58.386;15.560;2023-12-04T04:59:31;4.00;;;2.73;;
10719;SDS011;5411;58.386;15.560;2023-12-04T05:02:00;3.53;;;2.63;;
10719;SDS011;5411;58.386;15.560;2023-12-04T05:04:28;3.57;;;2.37;;
10719;SDS011;5411;58.386;15.560;2023-12-04T05:06:57;3.13;;;2.50;;
10719;SDS011;5411;58.386;15.560;2023-12-04T05:09:28;3.30;;;2.50;;
10719;SDS011;5411;58.386;15.560;2023-12-04T05:11:57;3.57;;;2.60;;
10719;SDS011;5411;58.386;15.560;2023-12-04T05:14:27;2.80;;;2.43;;
10719;SDS011;5411;58.386;15.560;2023-12-04T05:16:57;2.40;;;2.20;;
10719;SDS011;5411;58.386;15.560;2023-12-04T05:19:25;3.57;;;2.33;;
10719;SDS011;5411;58.386;15.560;2023-12-04T05:21:56;3.77;;;2.63;;
10719;SDS011;5411;58.386;15.560;2023-12-04T05:24:24;2.83;;;2.20;;
10719;SDS011;5411;58.386;15.560;2023-12-04T05:26:56;3.87;;;3.00;;
10719;SDS011;5411;58.386;15.560;2023-12-04T05:29:24;4.67;;;2.67;;
10719;SDS011;5411;58.386;15.560;2023-12-04T05:31:54;2.53;;;1.83;;
10719;SDS011;5411;58.386;15.560;2023-12-04T05:34:24;3.73;;;2.60;;
10719;SDS011;5411;58.386;15.560;2023-12-04T05:36:52;4.30;;;2.43;;
10719;SDS011;5411;58.386;15.560;2023-12-04T05:39:21;4.37;;;2.43;;
10719;SDS011;5411;58.386;15.560;2023-12-04T05:41:49;3.13;;;2.43;;
10719;SDS011;5411;58.386;15.560;2023-12-04T05:44:18;3.27;;;2.57;;
10719;SDS011;5411;58.386;15.560;2023-12-04T05:46:48;3.50;;;2.63;;
10719;SDS011;5411;58.386;15.560;2023-12-04T05:49:17;4.17;;;2.70;;
10719;SDS011;5411;58.386;15.560;2023-12-04T05:51:45;3.30;;;2.20;;
10719;SDS011;5411;58.386;15.560;2023-12-04T05:54:14;3.33;;;2.40;;
10719;SDS011;5411;58.386;15.560;2023-12-04T05:56:42;2.70;;;2.20;;
10719;SDS011;5411;58.386;15.560;2023-12-04T05:59:11;3.00;;;1.87;;
10719;SDS011;5411;58.386;15.560;2023-12-04T06:01:39;3.57;;;2.33;;
10719;SDS011;5411;58.386;15.560;2023-12-04T06:04:10;4.17;;;2.40;;
10719;SDS011;5411;58.386;15.560;2023-12-04T06:06:39;2.57;;;2.37;;
10719;SDS011;5411;58.386;15.560;2023-12-04T06:09:07;3.30;;;2.33;;
10719;SDS011;5411;58.386;15.560;2023-12-04T06:11:36;2.97;;;2.40;;
10719;SDS011;5411;58.386;15.560;2023-12-04T06:14:04;2.47;;;2.27;;
10719;SDS011;5411;58.386;15.560;2023-12-04T06:16:33;4.57;;;2.23;;
10719;SDS011;5411;58.386;15.560;2023-12-04T06:19:02;2.40;;;2.03;;
10719;SDS011;5411;58.386;15.560;2023-12-04T06:21:32;4.27;;;2.53;;
10719;SDS011;5411;58.386;15.560;2023-12-04T06:24:06;2.60;;;2.40;;
10719;SDS011;5411;58.386;15.560;2023-12-04T06:26:38;3.27;;;2.40;;
10719;SDS011;5411;58.386;15.560;2023-12-04T06:29:10;2.77;;;2.47;;
10719;SDS011;5411;58.386;15.560;2023-12-04T06:31:39;3.17;;;2.10;;
10719;SDS011;5411;58.386;15.560;2023-12-04T06:34:09;4.27;;;2.33;;
10719;SDS011;5411;58.386;15.560;2023-12-04T06:36:39;4.20;;;2.60;;
10719;SDS011;5411;58.386;15.560;2023-12-04T06:39:09;4.93;;;2.40;;
10719;SDS011;5411;58.386;15.560;2023-12-04T06:41:39;2.63;;;2.23;;
10719;SDS011;5411;58.386;15.560;2023-12-04T06:44:13;3.87;;;2.40;;
10719;SDS011;5411;58.386;15.560;2023-12-04T06:46:41;2.40;;;2.07;;
10719;SDS011;5411;58.386;15.560;2023-12-04T06:49:16;3.13;;;2.23;;
10719;SDS011;5411;58.386;15.560;2023-12-04T06:51:50;3.03;;;2.47;;
10719;SDS011;5411;58.386;15.560;2023-12-04T06:54:19;2.43;;;2.13;;
10719;SDS011;5411;58.386;15.560;2023-12-04T06:56:47;2.70;;;2.07;;
10719;SDS011;5411;58.386;15.560;2023-12-04T06:59:16;2.03;;;1.50;;
10719;SDS011;5411;58.386;15.560;2023-12-04T07:01:49;2.93;;;2.10;;
10719;SDS011;5411;58.386;15.560;2023-12-04T07:04:19;1.90;;;1.80;;
10719;SDS011;5411;58.386;15.560;2023-12-04T07:06:50;1.93;;;1.70;;
10719;SDS011;5411;58.386;15.560;2023-12-04T07:09:19;2.53;;;2.23;;
10719;SDS011;5411;58.386;15.560;2023-12-04T07:11:48;3.43;;;2.10;;
10719;SDS011;5411;58.386;15.560;2023-12-04T07:14:17;2.83;;;2.00;;
10719;SDS011;5411;58.386;15.560;2023-12-04T07:16:45;3.27;;;2.20;;
10719;SDS011;5411;58.386;15.560;2023-12-04T07:19:14;2.13;;;1.93;;
10719;SDS011;5411;58.386;15.560;2023-12-04T07:21:43;2.47;;;2.27;;
10719;SDS011;5411;58.386;15.560;2023-12-04T07:24:13;2.47;;;2.13;;
10719;SDS011;5411;58.386;15.560;2023-12-04T07:26:41;1.50;;;1.40;;
10719;SDS011;5411;58.386;15.560;2023-12-04T07:29:10;2.20;;;2.00;;
10719;SDS011;5411;58.386;15.560;2023-12-04T07:31:39;3.37;;;2.10;;
10719;SDS011;5411;58.386;15.560;2023-12-04T07:34:10;2.73;;;1.90;;
10719;SDS011;5411;58.386;15.560;2023-12-04T07:36:38;2.17;;;1.57;;
10719;SDS011;5411;58.386;15.560;2023-12-04T07:39:07;6.13;;;2.23;;
10719;SDS011;5411;58.386;15.560;2023-12-04T07:41:37;2.30;;;1.97;;
10719;SDS011;5411;58.386;15.560;2023-12-04T07:44:05;2.47;;;2.27;;
10719;SDS011;5411;58.386;15.560;2023-12-04T07:46:34;2.47;;;2.00;;
10719;SDS011;5411;58.386;15.560;2023-12-04T07:49:03;2.30;;;2.10;;
10719;SDS011;5411;58.386;15.560;2023-12-04T07:51:31;3.17;;;2.67;;
10719;SDS011;5411;58.386;15.560;2023-12-04T07:54:00;4.90;;;2.37;;
10719;SDS011;5411;58.386;15.560;2023-12-04T07:56:30;2.63;;;1.97;;
10719;SDS011;5411;58.386;15.560;2023-12-04T07:59:00;2.57;;;1.93;;
10719;SDS011;5411;58.386;15.560;2023-12-04T08:01:31;1.83;;;1.70;;
10719;SDS011;5411;58.386;15.560;2023-12-04T08:04:03;2.63;;;2.30;;
10719;SDS011;5411;58.386;15.560;2023-12-04T08:06:32;2.17;;;1.87;;
10719;SDS011;5411;58.386;15.560;2023-12-04T08:09:00;2.40;;;1.97;;
10719;SDS011;5411;58.386;15.560;2023-12-04T08:11:29;2.43;;;1.73;;
10719;SDS011;5411;58.386;15.560;2023-12-04T08:13:59;1.70;;;1.60;;
10719;SDS011;5411;58.386;15.560;2023-12-04T08:16:31;1.93;;;1.83;;
10719;SDS011;5411;58.386;15.560;2023-12-04T08:18:59;2.50;;;1.87;;
10719;SDS011;5411;58.386;15.560;2023-12-04T08:21:28;1.93;;;1.83;;
10719;SDS011;5411;58.386;15.560;2023-12-04T08:23:58;2.13;;;1.93;;
10719;SDS011;5411;58.386;15.560;2023-12-04T08:26:27;2.13;;;1.80;;
10719;SDS011;5411;58.386;15.560;2023-12-04T08:28:55;1.90;;;1.70;;
10719;SDS011;5411;58.386;15.560;2023-12-04T08:31:25;2.17;;;2.07;;
10719;SDS011;5411;58.386;15.560;2023-12-04T08:33:54;3.43;;;1.73;;
10719;SDS011;5411;58.386;15.560;2023-12-04T08:36:22;2.50;;;2.30;;
10719;SDS011;5411;58.386;15.560;2023-12-04T08:38:51;2.00;;;1.80;;
10719;SDS011;5411;58.386;15.560;2023-12-04T08:41:19;2.00;;;1.80;;
10719;SDS011;5411;58.386;15.560;2023-12-04T08:43:48;3.30;;;1.90;;
10719;SDS011;5411;58.386;15.560;2023-12-04T08:46:17;2.40;;;1.77;;
10719;SDS011;5411;58.386;15.560;2023-12-04T08:48:47;3.83;;;2.00;;
10719;SDS011;5411;58.386;15.560;2023-12-04T08:51:16;2.23;;;1.97;;
10719;SDS011;5411;58.386;15.560;2023-12-04T08:53:44;2.37;;;2.03;;
10719;SDS011;5411;58.386;15.560;2023-12-04T08:56:13;1.80;;;1.70;;
10719;SDS011;5411;58.386;15.560;2023-12-04T08:58:51;1.77;;;1.67;;
10719;SDS011;5411;58.386;15.560;2023-12-04T09:01:24;2.00;;;1.80;;
10719;SDS011;5411;58.386;15.560;2023-12-04T09:03:54;2.67;;;1.90;;
10719;SDS011;5411;58.386;15.560;2023-12-04T09:06:25;2.13;;;1.93;;
10719;SDS011;5411;58.386;15.560;2023-12-04T09:08:56;1.93;;;1.73;;
10719;SDS011;5411;58.386;15.560;2023-12-04T09:11:25;2.17;;;1.97;;
10719;SDS011;5411;58.386;15.560;2023-12-04T09:13:55;2.10;;;1.70;;
10719;SDS011;5411;58.386;15.560;2023-12-04T09:16:23;2.10;;;1.70;;
10719;SDS011;5411;58.386;15.560;2023-12-04T09:18:51;2.17;;;1.43;;
10719;SDS011;5411;58.386;15.560;2023-12-04T09:21:21;2.30;;;2.00;;
10719;SDS011;5411;58.386;15.560;2023-12-04T09:23:50;2.00;;;1.60;;
10719;SDS011;5411;58.386;15.560;2023-12-04T09:26:18;2.00;;;1.70;;
10719;SDS011;5411;58.386;15.560;2023-12-04T09:28:47;2.23;;;1.80;;
10719;SDS011;5411;58.386;15.560;2023-12-04T09:31:16;2.30;;;2.10;;
10719;SDS011;5411;58.386;15.560;2023-12-04T09:33:44;2.30;;;2.10;;
10719;SDS011;5411;58.386;15.560;2023-12-04T09:36:13;2.53;;;1.97;;
10719;SDS011;5411;58.386;15.560;2023-12-04T09:38:44;2.30;;;2.10;;
10719;SDS011;5411;58.386;15.560;2023-12-04T09:41:13;2.57;;;2.10;;
10719;SDS011;5411;58.386;15.560;2023-12-04T09:43:44;2.30;;;1.70;;
10719;SDS011;5411;58.386;15.560;2023-12-04T09:46:14;2.73;;;2.17;;
10719;SDS011;5411;58.386;15.560;2023-12-04T09:48:51;1.90;;;1.77;;
10719;SDS011;5411;58.386;15.560;2023-12-04T09:51:22;2.23;;;2.03;;
10719;SDS011;5411;58.386;15.560;2023-12-04T09:53:53;2.37;;;2.00;;
10719;SDS011;5411;58.386;15.560;2023-12-04T09:56:22;2.80;;;2.00;;
10719;SDS011;5411;58.386;15.560;2023-12-04T09:58:52;2.27;;;2.07;;
10719;SDS011;5411;58.386;15.560;2023-12-04T10:01:26;2.10;;;1.90;;
10719;SDS011;5411;58.386;15.560;2023-12-04T10:03:58;3.07;;;2.10;;
10719;SDS011;5411;58.386;15.560;2023-12-04T10:06:28;2.23;;;2.03;;
10719;SDS011;5411;58.386;15.560;2023-12-04T10:11:51;3.03;;;2.13;;
10719;SDS011;5411;58.386;15.560;2023-12-04T10:14:20;2.37;;;2.03;;
10719;SDS011;5411;58.386;15.560;2023-12-04T10:16:52;2.47;;;2.07;;
10719;SDS011;5411;58.386;15.560;2023-12-04T10:19:21;2.63;;;2.43;;
10719;SDS011;5411;58.386;15.560;2023-12-04T10:21:54;3.00;;;2.23;;
10719;SDS011;5411;58.386;15.560;2023-12-04T10:24:27;2.53;;;2.23;;
10719;SDS011;5411;58.386;15.560;2023-12-04T10:27:01;2.07;;;1.90;;
10719;SDS011;5411;58.386;15.560;2023-12-04T10:29:41;3.10;;;1.87;;
10719;SDS011;5411;58.386;15.560;2023-12-04T10:32:11;1.80;;;1.70;;
10719;SDS011;5411;58.386;15.560;2023-12-04T10:34:41;2.40;;;2.20;;
10719;SDS011;5411;58.386;15.560;2023-12-04T10:37:10;2.00;;;1.80;;
10719;SDS011;5411;58.386;15.560;2023-12-04T10:39:45;2.10;;;1.90;;
10719;SDS011;5411;58.386;15.560;2023-12-04T10:42:25;2.70;;;1.83;;
10719;SDS011;5411;58.386;15.560;2023-12-04T10:44:56;1.90;;;1.80;;
10719;SDS011;5411;58.386;15.560;2023-12-04T10:47:25;3.83;;;2.00;;
10719;SDS011;5411;58.386;15.560;2023-12-04T10:49:54;1.93;;;1.73;;
10719;SDS011;5411;58.386;15.560;2023-12-04T10:52:23;2.10;;;1.90;;
10719;SDS011;5411;58.386;15.560;2023-12-04T10:54:52;2.20;;;1.90;;
10719;SDS011;5411;58.386;15.560;2023-12-04T10:57:21;2.60;;;1.90;;
10719;SDS011;5411;58.386;15.560;2023-12-04T10:59:56;2.17;;;1.80;;
10719;SDS011;5411;58.386;15.560;2023-12-04T11:02:27;2.43;;;2.13;;
10719;SDS011;5411;58.386;15.560;2023-12-04T11:05:03;1.67;;;1.57;;
10719;SDS011;5411;58.386;15.560;2023-12-04T11:07:41;3.00;;;1.90;;
10719;SDS011;5411;58.386;15.560;2023-12-04T11:10:31;2.13;;;2.00;;
10719;SDS011;5411;58.386;15.560;2023-12-04T11:13:05;2.97;;;2.10;;
10719;SDS011;5411;58.386;15.560;2023-12-04T11:15:40;2.43;;;1.77;;
10719;SDS011;5411;58.386;15.560;2023-12-04T11:18:13;2.03;;;1.83;;
10719;SDS011;5411;58.386;15.560;2023-12-04T11:20:44;2.90;;;1.90;;
10719;SDS011;5411;58.386;15.560;2023-12-04T11:23:19;2.50;;;2.00;;
10719;SDS011;5411;58.386;15.560;2023-12-04T11:25:55;2.40;;;2.10;;
10719;SDS011;5411;58.386;15.560;2023-12-04T11:28:25;2.97;;;2.40;;
10719;SDS011;5411;58.386;15.560;2023-12-04T11:33:34;2.57;;;2.10;;
10719;SDS011;5411;58.386;15.560;2023-12-04T11:36:10;3.37;;;2.40;;
10719;SDS011;5411;58.386;15.560;2023-12-04T11:38:43;4.07;;;2.47;;
10719;SDS011;5411;58.386;15.560;2023-12-04T11:41:14;2.17;;;1.90;;
10719;SDS011;5411;58.386;15.560;2023-12-04T11:43:51;3.40;;;2.30;;
10719;SDS011;5411;58.386;15.560;2023-12-04T11:46:21;3.03;;;2.17;;
10719;SDS011;5411;58.386;15.560;2023-12-04T11:48:51;3.53;;;2.00;;
10719;SDS011;5411;58.386;15.560;2023-12-04T11:54:19;2.73;;;2.37;;
10719;SDS011;5411;58.386;15.560;2023-12-04T11:56:58;2.50;;;1.80;;
10719;SDS011;5411;58.386;15.560;2023-12-04T11:59:32;2.33;;;2.07;;
10719;SDS011;5411;58.386;15.560;2023-12-04T12:02:07;4.37;;;2.40;;
10719;SDS011;5411;58.386;15.560;2023-12-04T12:04:36;2.60;;;2.00;;
10719;SDS011;5411;58.386;15.560;2023-12-04T12:07:08;3.50;;;2.27;;
10719;SDS011;5411;58.386;15.560;2023-12-04T12:09:39;2.90;;;2.33;;
10719;SDS011;5411;58.386;15.560;2023-12-04T12:12:09;2.73;;;2.40;;
10719;SDS011;5411;58.386;15.560;2023-12-04T12:14:40;3.17;;;2.03;;
10719;SDS011;5411;58.386;15.560;2023-12-04T12:17:08;2.87;;;2.50;;
10719;SDS011;5411;58.386;15.560;2023-12-04T12:19:37;2.43;;;2.10;;
10719;SDS011;5411;58.386;15.560;2023-12-04T12:22:06;2.50;;;1.97;;
10719;SDS011;5411;58.386;15.560;2023-12-04T12:24:35;3.30;;;2.53;;
10719;SDS011;5411;58.386;15.560;2023-12-04T12:27:04;2.57;;;1.97;;
10719;SDS011;5411;58.386;15.560;2023-12-04T12:29:34;3.17;;;2.80;;
10719;SDS011;5411;58.386;15.560;2023-12-04T12:32:04;2.30;;;2.10;;
10719;SDS011;5411;58.386;15.560;2023-12-04T12:34:33;2.63;;;2.43;;
10719;SDS011;5411;58.386;15.560;2023-12-04T12:37:03;2.97;;;2.47;;
10719;SDS011;5411;58.386;15.560;2023-12-04T12:39:33;6.20;;;2.40;;
10719;SDS011;5411;58.386;15.560;2023-12-04T12:42:01;3.40;;;2.90;;
10719;SDS011;5411;58.386;15.560;2023-12-04T12:44:38;3.30;;;2.80;;
10719;SDS011;5411;58.386;15.560;2023-12-04T12:47:10;3.00;;;2.70;;
10719;SDS011;5411;58.386;15.560;2023-12-04T12:49:43;4.20;;;2.70;;
10719;SDS011;5411;58.386;15.560;2023-12-04T12:52:14;2.50;;;2.30;;
10719;SDS011;5411;58.386;15.560;2023-12-04T12:54:43;6.53;;;2.93;;
10719;SDS011;5411;58.386;15.560;2023-12-04T12:57:13;2.60;;;2.23;;
10719;SDS011;5411;58.386;15.560;2023-12-04T12:59:42;3.73;;;2.20;;
10719;SDS011;5411;58.386;15.560;2023-12-04T13:02:13;3.43;;;2.70;;
10719;SDS011;5411;58.386;15.560;2023-12-04T13:04:44;3.53;;;2.60;;
10719;SDS011;5411;58.386;15.560;2023-12-04T13:07:13;3.70;;;3.00;;
10719;SDS011;5411;58.386;15.560;2023-12-04T13:09:42;2.77;;;2.43;;
10719;SDS011;5411;58.386;15.560;2023-12-04T13:12:10;2.50;;;2.30;;
10719;SDS011;5411;58.386;15.560;2023-12-04T13:14:39;2.60;;;2.40;;
10719;SDS011;5411;58.386;15.560;2023-12-04T13:17:07;2.93;;;2.10;;
10719;SDS011;5411;58.386;15.560;2023-12-04T13:19:38;3.37;;;2.70;;
10719;SDS011;5411;58.386;15.560;2023-12-04T13:22:06;2.80;;;2.40;;
10719;SDS011;5411;58.386;15.560;2023-12-04T13:24:36;3.73;;;2.30;;
10719;SDS011;5411;58.386;15.560;2023-12-04T13:27:05;3.00;;;2.43;;
10719;SDS011;5411;58.386;15.560;2023-12-04T13:29:33;2.93;;;2.27;;
10719;SDS011;5411;58.386;15.560;2023-12-04T13:32:02;3.13;;;2.50;;
10719;SDS011;5411;58.386;15.560;2023-12-04T13:34:32;2.67;;;2.30;;
10719;SDS011;5411;58.386;15.560;2023-12-04T13:37:02;3.73;;;2.13;;
10719;SDS011;5411;58.386;15.560;2023-12-04T13:39:31;3.70;;;2.33;;
10719;SDS011;5411;58.386;15.560;2023-12-04T13:42:15;3.60;;;2.10;;
10719;SDS011;5411;58.386;15.560;2023-12-04T13:45:02;2.97;;;2.27;;
10719;SDS011;5411;58.386;15.560;2023-12-04T13:47:31;3.07;;;2.40;;
10719;SDS011;5411;58.386;15.560;2023-12-04T13:50:01;4.70;;;2.30;;
10719;SDS011;5411;58.386;15.560;2023-12-04T13:52:31;2.70;;;2.20;;
10719;SDS011;5411;58.386;15.560;2023-12-04T13:55:02;2.20;;;2.00;;
10719;SDS011;5411;58.386;15.560;2023-12-04T13:57:47;2.20;;;2.00;;
10719;SDS011;5411;58.386;15.560;2023-12-04T14:00:40;3.87;;;2.67;;
10719;SDS011;5411;58.386;15.560;2023-12-04T14:03:11;2.77;;;2.30;;
10719;SDS011;5411;58.386;15.560;2023-12-04T14:05:40;3.27;;;2.40;;
10719;SDS011;5411;58.386;15.560;2023-12-04T14:08:11;2.73;;;2.40;;
10719;SDS011;5411;58.386;15.560;2023-12-04T14:10:40;3.00;;;2.20;;
10719;SDS011;5411;58.386;15.560;2023-12-04T14:13:11;3.53;;;2.40;;
10719;SDS011;5411;58.386;15.560;2023-12-04T14:15:40;3.07;;;2.47;;
10719;SDS011;5411;58.386;15.560;2023-12-04T14:18:08;2.40;;;2.20;;
10719;SDS011;5411;58.386;15.560;2023-12-04T14:20:37;3.37;;;2.60;;
10719;SDS011;5411;58.386;15.560;2023-12-04T14:23:08;3.73;;;2.60;;
10719;SDS011;5411;58.386;15.560;2023-12-04T14:25:38;3.03;;;2.30;;
10719;SDS011;5411;58.386;15.560;2023-12-04T14:28:06;3.07;;;2.50;;
10719;SDS011;5411;58.386;15.560;2023-12-04T14:30:35;3.33;;;2.33;;
10719;SDS011;5411;58.386;15.560;2023-12-04T14:33:04;2.77;;;2.43;;
10719;SDS011;5411;58.386;15.560;2023-12-04T14:35:32;2.60;;;2.40;;
10719;SDS011;5411;58.386;15.560;2023-12-04T14:38:01;3.17;;;2.47;;
10719;SDS011;5411;58.386;15.560;2023-12-04T14:40:29;2.33;;;2.13;;
10719;SDS011;5411;58.386;15.560;2023-12-04T14:43:00;4.57;;;2.67;;
10719;SDS011;5411;58.386;15.560;2023-12-04T14:45:28;3.80;;;2.67;;
10719;SDS011;5411;58.386;15.560;2023-12-04T14:47:57;2.17;;;1.97;;
10719;SDS011;5411;58.386;15.560;2023-12-04T14:50:25;13.00;;;2.67;;
10719;SDS011;5411;58.386;15.560;2023-12-04T14:52:54;3.80;;;2.43;;
10719;SDS011;5411;58.386;15.560;2023-12-04T14:55:23;2.60;;;2.23;;
10719;SDS011;5411;58.386;15.560;2023-12-04T14:58:13;4.47;;;2.20;;
10719;SDS011;5411;58.386;15.560;2023-12-04T15:01:14;3.17;;;2.40;;
10719;SDS011;5411;58.386;15.560;2023-12-04T15:04:02;4.20;;;3.00;;
10719;SDS011;5411;58.386;15.560;2023-12-04T15:06:52;3.70;;;2.33;;
10719;SDS011;5411;58.386;15.560;2023-12-04T15:09:41;2.87;;;2.30;;
10719;SDS011;5411;58.386;15.560;2023-12-04T15:12:39;2.70;;;2.23;;
10719;SDS011;5411;58.386;15.560;2023-12-04T15:15:33;3.90;;;2.67;;